createdAt,value
2023-05-21T00:03:33.004Z,61.03
2023-05-21T00:06:01.704Z,60.58
2023-05-21T00:08:28.735Z,58.95
2023-05-21T00:10:55.721Z,59.10
2023-05-21T00:13:22.622Z,58.93
2023-05-21T00:15:49.560Z,59.31
2023-05-21T00:18:16.745Z,58.99
2023-05-21T00:20:43.676Z,59.62
2023-05-21T00:23:10.500Z,59.49
2023-05-21T00:25:37.595Z,60.21
2023-05-21T00:28:05.673Z,61.55
2023-05-21T00:30:32.814Z,61.12
2023-05-21T00:33:02.754Z,60.92
2023-05-21T00:35:30.195Z,61.27
2023-05-21T00:37:57.482Z,60.41
2023-05-21T00:40:24.530Z,60.66
2023-05-21T00:42:51.420Z,60.35
2023-05-21T00:45:18.488Z,60.71
2023-05-21T00:47:45.978Z,59.53
2023-05-21T00:50:15.359Z,60.34
2023-05-21T00:52:45.705Z,60.42
2023-05-21T00:55:13.031Z,60.64
2023-05-21T00:57:40.571Z,61.67
2023-05-21T01:00:09.193Z,59.79
2023-05-21T01:02:38.145Z,58.26
2023-05-21T01:05:06.850Z,58.80
2023-05-21T01:07:39.959Z,59.55
2023-05-21T01:10:09.902Z,59.95
2023-05-21T01:12:40.069Z,56.21
2023-05-21T01:15:07.641Z,57.01
2023-05-21T01:17:37.291Z,60.68
2023-05-21T01:20:14.583Z,61.65
2023-05-21T01:22:51.598Z,61.10
2023-05-21T01:25:18.393Z,60.84
2023-05-21T01:27:45.266Z,60.67
2023-05-21T01:30:13.512Z,63.86
2023-05-21T01:33:05.486Z,64.22
2023-05-21T01:39:22.536Z,64.33
2023-05-21T01:41:52.446Z,64.49
2023-05-21T01:44:19.663Z,63.84
2023-05-21T01:46:46.744Z,63.54
2023-05-21T01:49:14.843Z,60.17
2023-05-21T01:51:41.841Z,59.91
2023-05-21T01:54:09.446Z,59.76
2023-05-21T01:56:37.019Z,61.70
2023-05-21T01:59:05.810Z,63.93
2023-05-21T02:01:32.869Z,64.19
2023-05-21T02:03:59.842Z,64.11
2023-05-21T02:06:26.869Z,64.29
2023-05-21T02:08:53.902Z,64.44
2023-05-21T02:11:20.857Z,64.30
2023-05-21T02:13:47.800Z,63.60
2023-05-21T02:16:16.050Z,64.00
2023-05-21T02:18:46.492Z,64.14
2023-05-21T02:21:13.594Z,63.76
2023-05-21T02:23:42.617Z,63.11
2023-05-21T02:26:09.399Z,62.82
2023-05-21T02:28:36.479Z,62.95
2023-05-21T02:31:03.686Z,62.38
2023-05-21T02:33:31.677Z,61.82
2023-05-21T02:35:59.011Z,61.50
2023-05-21T02:38:25.922Z,62.05
2023-05-21T02:40:53.159Z,62.07
2023-05-21T02:43:20.373Z,61.84
2023-05-21T02:45:47.701Z,61.31
2023-05-21T02:48:14.938Z,63.08
2023-05-21T02:50:42.762Z,63.20
2023-05-21T02:53:09.968Z,64.41
2023-05-21T02:55:37.402Z,62.56
2023-05-21T02:58:05.051Z,61.55
2023-05-21T03:00:31.945Z,61.02
2023-05-21T03:03:02.985Z,61.13
2023-05-21T03:05:29.991Z,61.98
2023-05-21T03:07:59.308Z,62.17
2023-05-21T03:10:26.310Z,62.05
2023-05-21T03:12:54.856Z,62.70
2023-05-21T03:15:24.309Z,61.05
2023-05-21T03:17:54.220Z,61.39
2023-05-21T03:20:21.235Z,59.13
2023-05-21T03:22:48.341Z,59.54
2023-05-21T03:25:15.478Z,61.48
2023-05-21T03:27:42.419Z,60.67
2023-05-21T03:30:27.665Z,60.89
2023-05-21T03:33:20.785Z,61.10
2023-05-21T03:35:47.723Z,61.71
2023-05-21T03:38:14.978Z,63.07
2023-05-21T03:40:41.928Z,60.27
2023-05-21T03:43:08.932Z,59.72
2023-05-21T03:45:37.020Z,60.93
2023-05-21T03:48:24.320Z,61.28
2023-05-21T03:50:51.554Z,61.10
2023-05-21T03:53:19.817Z,61.48
2023-05-21T03:55:54.811Z,63.85
2023-05-21T03:58:24.173Z,63.09
2023-05-21T04:00:51.349Z,62.92
2023-05-21T04:03:18.349Z,62.34
2023-05-21T04:05:45.442Z,64.09
2023-05-21T04:08:12.660Z,63.21
2023-05-21T04:10:39.535Z,62.12
2023-05-21T04:13:06.560Z,61.28
2023-05-21T04:15:35.697Z,61.81
2023-05-21T04:18:02.918Z,62.81
2023-05-21T04:20:29.871Z,62.00
2023-05-21T04:22:56.884Z,65.04
2023-05-21T04:25:23.776Z,64.69
2023-05-21T04:27:50.883Z,66.64
2023-05-21T04:30:20.049Z,63.50
2023-05-21T04:32:48.258Z,63.44
2023-05-21T04:35:18.155Z,63.11
2023-05-21T04:37:46.094Z,62.42
2023-05-21T04:40:18.396Z,62.69
2023-05-21T04:42:46.750Z,63.14
2023-05-21T04:45:14.077Z,62.51
2023-05-21T04:47:46.128Z,61.83
2023-05-21T04:50:13.106Z,63.75
2023-05-21T04:52:40.348Z,63.83
2023-05-21T04:55:08.314Z,63.90
2023-05-21T04:57:36.104Z,66.03
2023-05-21T05:00:07.415Z,64.46
2023-05-21T05:02:40.261Z,62.76
2023-05-21T05:05:07.288Z,62.73
2023-05-21T05:07:34.231Z,62.41
2023-05-21T05:10:01.232Z,62.02
2023-05-21T05:12:28.352Z,61.69
2023-05-21T05:14:55.265Z,60.19
2023-05-21T05:17:24.678Z,60.21
2023-05-21T05:19:51.557Z,61.30
2023-05-21T05:22:18.484Z,62.62
2023-05-21T05:24:46.641Z,63.54
2023-05-21T05:27:14.213Z,61.32
2023-05-21T05:29:41.144Z,59.93
2023-05-21T05:32:08.219Z,59.10
2023-05-21T05:34:35.042Z,59.64
2023-05-21T05:37:03.030Z,59.18
2023-05-21T05:39:31.251Z,59.42
2023-05-21T05:41:58.214Z,58.89
2023-05-21T05:44:26.264Z,60.23
2023-05-21T05:46:54.156Z,58.66
2023-05-21T05:49:21.128Z,58.20
2023-05-21T05:51:48.051Z,58.61
2023-05-21T05:54:15.115Z,58.68
2023-05-21T05:56:42.079Z,58.55
2023-05-21T05:59:09.179Z,57.16
2023-05-21T06:01:38.446Z,57.33
2023-05-21T06:04:06.263Z,57.46
2023-05-21T06:06:34.890Z,55.58
2023-05-21T06:09:01.938Z,55.27
2023-05-21T06:11:29.201Z,55.90
2023-05-21T06:13:56.819Z,55.44
2023-05-21T06:16:23.775Z,54.90
2023-05-21T06:18:51.336Z,53.49
2023-05-21T06:21:18.356Z,52.74
2023-05-21T06:23:45.659Z,53.31
2023-05-21T06:26:12.468Z,52.24
2023-05-21T06:28:40.338Z,51.51
2023-05-21T06:31:12.151Z,49.65
2023-05-21T06:33:39.378Z,49.89
2023-05-21T06:36:09.021Z,49.67
2023-05-21T06:38:36.372Z,48.87
2023-05-21T06:41:04.247Z,48.50
2023-05-21T06:43:45.584Z,49.17
2023-05-21T06:46:31.406Z,48.29
2023-05-21T06:48:58.335Z,48.79
2023-05-21T06:51:25.399Z,48.11
2023-05-21T06:53:53.056Z,48.02
2023-05-21T06:56:19.904Z,48.04
2023-05-21T06:58:46.854Z,48.38
2023-05-21T07:01:13.850Z,48.84
2023-05-21T07:03:40.893Z,46.43
2023-05-21T07:06:09.102Z,47.15
2023-05-21T07:08:36.471Z,46.34
2023-05-21T07:11:03.757Z,44.37
2023-05-21T07:13:31.166Z,44.53
2023-05-21T07:15:59.607Z,42.17
2023-05-21T07:18:27.754Z,42.96
2023-05-21T07:20:54.982Z,41.28
2023-05-21T07:23:22.008Z,40.54
2023-05-21T07:25:48.833Z,42.38
2023-05-21T07:28:17.687Z,42.16
2023-05-21T07:30:45.368Z,41.40
2023-05-21T07:33:16.483Z,40.07
2023-05-21T07:35:44.941Z,41.15
2023-05-21T07:38:11.904Z,40.12
2023-05-21T07:40:39.247Z,40.19
2023-05-21T07:43:06.742Z,40.15
2023-05-21T07:45:35.376Z,38.48
2023-05-21T07:48:03.026Z,39.37
2023-05-21T07:50:32.589Z,38.82
2023-05-21T07:53:00.120Z,38.94
2023-05-21T07:55:27.275Z,36.77
2023-05-21T07:57:54.638Z,39.18
2023-05-21T08:00:26.743Z,38.30
2023-05-21T08:02:57.323Z,37.56
2023-05-21T08:05:25.887Z,39.51
2023-05-21T08:07:53.188Z,37.73
2023-05-21T08:10:21.242Z,39.55
2023-05-21T08:12:50.217Z,40.58
2023-05-21T08:15:17.984Z,39.81
2023-05-21T08:17:47.099Z,40.75
2023-05-21T08:20:15.349Z,40.66
2023-05-21T08:22:44.406Z,40.01
2023-05-21T08:25:11.767Z,40.40
2023-05-21T08:27:38.870Z,39.41
2023-05-21T08:30:07.248Z,38.45
2023-05-21T08:32:35.226Z,38.24
2023-05-21T08:35:02.476Z,37.28
2023-05-21T08:37:52.182Z,36.65
2023-05-21T08:40:36.663Z,38.40
2023-05-21T08:43:03.916Z,38.24
2023-05-21T08:45:59.167Z,36.82
2023-05-21T08:48:31.785Z,35.92
2023-05-21T08:51:00.370Z,34.22
2023-05-21T08:53:33.662Z,33.98
2023-05-21T08:56:01.888Z,33.52
2023-05-21T08:59:02.540Z,32.99
2023-05-21T09:01:34.713Z,32.65
2023-05-21T09:04:21.155Z,32.40
2023-05-21T09:06:52.106Z,32.69
2023-05-21T09:09:34.770Z,32.56
2023-05-21T09:12:02.506Z,33.10
2023-05-21T09:14:30.921Z,32.34
2023-05-21T09:17:20.204Z,32.74
2023-05-21T09:20:15.976Z,30.99
2023-05-21T09:22:50.856Z,32.10
2023-05-21T09:25:22.410Z,32.41
2023-05-21T09:27:49.871Z,30.80
2023-05-21T09:30:34.881Z,31.65
2023-05-21T09:33:03.647Z,28.80
2023-05-21T09:35:34.514Z,29.98
2023-05-21T09:38:09.923Z,31.81
2023-05-21T09:40:48.350Z,30.37
2023-05-21T09:43:17.366Z,31.08
2023-05-21T09:45:59.691Z,31.25
2023-05-21T09:48:42.907Z,30.75
2023-05-21T09:51:19.003Z,30.28
2023-05-21T09:54:01.660Z,31.83
2023-05-21T09:56:30.976Z,30.06
2023-05-21T09:59:00.610Z,31.20
2023-05-21T10:01:28.841Z,30.34
2023-05-21T10:03:58.388Z,31.00
2023-05-21T10:06:28.638Z,30.36
2023-05-21T10:08:57.546Z,30.01
2023-05-21T10:11:31.443Z,30.13
2023-05-21T10:14:07.254Z,30.16
2023-05-21T10:16:36.463Z,30.40
2023-05-21T10:19:05.353Z,29.82
2023-05-21T10:21:33.501Z,30.45
2023-05-21T10:24:02.691Z,29.93
2023-05-21T10:26:30.816Z,33.09
2023-05-21T10:29:01.322Z,34.57
2023-05-21T10:31:29.849Z,34.64
2023-05-21T10:33:56.910Z,35.74
2023-05-21T10:36:27.478Z,35.38
2023-05-21T10:38:55.605Z,34.64
2023-05-21T10:41:24.456Z,34.70
2023-05-21T10:44:10.346Z,33.35
2023-05-21T10:46:57.499Z,33.41
2023-05-21T10:49:59.447Z,33.16
2023-05-21T10:52:32.596Z,34.13
2023-05-21T10:55:36.207Z,32.47
2023-05-21T10:59:05.255Z,31.70
2023-05-21T11:01:36.485Z,30.79
2023-05-21T11:04:06.987Z,30.62
2023-05-21T11:06:33.932Z,30.35
2023-05-21T11:09:11.959Z,29.72
2023-05-21T11:11:48.688Z,28.92
2023-05-21T11:14:40.591Z,31.21
2023-05-21T11:17:07.405Z,30.63
2023-05-21T11:19:37.283Z,27.69
2023-05-21T11:22:28.168Z,28.92
2023-05-21T11:24:56.353Z,27.67
2023-05-21T11:27:40.576Z,25.89
2023-05-21T11:30:09.925Z,26.26
2023-05-21T11:32:41.242Z,26.27
2023-05-21T11:35:08.900Z,25.32
2023-05-21T11:37:37.863Z,26.15
2023-05-21T11:40:23.892Z,25.02
2023-05-21T11:42:52.867Z,27.03
2023-05-21T11:45:21.365Z,25.29
2023-05-21T11:47:50.117Z,26.44
2023-05-21T11:50:18.010Z,24.70
2023-05-21T11:52:45.614Z,25.53
2023-05-21T11:55:13.406Z,27.09
2023-05-21T11:57:43.055Z,28.60
2023-05-21T12:00:17.176Z,28.32
2023-05-21T12:02:53.460Z,27.99
2023-05-21T12:05:22.014Z,26.82
2023-05-21T12:07:50.794Z,27.42
2023-05-21T12:10:22.164Z,26.49
2023-05-21T12:12:56.237Z,25.80
2023-05-21T12:15:26.597Z,25.32
2023-05-21T12:17:55.727Z,26.73
2023-05-21T12:20:23.860Z,26.19
2023-05-21T12:22:51.660Z,27.36
2023-05-21T12:25:22.364Z,27.06
2023-05-21T12:27:59.145Z,27.05
2023-05-21T12:30:34.502Z,27.84
2023-05-21T12:33:05.404Z,28.52
2023-05-21T12:35:33.231Z,28.85
2023-05-21T12:38:03.686Z,27.33
2023-05-21T12:40:40.225Z,26.13
2023-05-21T12:43:07.997Z,25.05
2023-05-21T12:45:36.764Z,24.40
2023-05-21T12:48:04.395Z,24.06
2023-05-21T12:50:33.046Z,25.20
2023-05-21T12:53:00.048Z,24.49
2023-05-21T12:55:27.006Z,25.74
2023-05-21T12:58:03.752Z,24.59
2023-05-21T13:00:30.641Z,25.03
2023-05-21T13:03:00.114Z,24.99
2023-05-21T13:05:27.270Z,24.19
2023-05-21T13:07:54.263Z,24.78
2023-05-21T13:10:21.900Z,26.24
2023-05-21T13:12:48.827Z,24.21
2023-05-21T13:15:15.885Z,24.84
2023-05-21T13:17:43.028Z,23.76
2023-05-21T13:20:15.272Z,22.83
2023-05-21T13:22:46.946Z,23.40
2023-05-21T13:25:18.960Z,22.44
2023-05-21T13:27:46.993Z,22.89
2023-05-21T13:30:14.093Z,23.62
2023-05-21T13:32:43.427Z,24.99
2023-05-21T13:35:12.129Z,25.90
2023-05-21T13:37:40.937Z,24.80
2023-05-21T13:40:16.261Z,25.08
2023-05-21T13:42:48.301Z,22.87
2023-05-21T13:45:21.305Z,23.30
2023-05-21T13:47:48.612Z,24.01
2023-05-21T13:50:15.765Z,24.19
2023-05-21T13:52:43.108Z,22.83
2023-05-21T13:55:11.347Z,23.11
2023-05-21T13:57:38.560Z,24.01
2023-05-21T14:00:14.247Z,22.71
2023-05-21T14:02:44.242Z,23.69
2023-05-21T14:05:12.391Z,22.06
2023-05-21T14:07:40.156Z,22.96
2023-05-21T14:10:07.911Z,23.39
2023-05-21T14:12:34.825Z,23.95
2023-05-21T14:15:02.013Z,24.35
2023-05-21T14:17:29.138Z,24.01
2023-05-21T14:19:56.053Z,24.80
2023-05-21T14:22:23.132Z,23.52
2023-05-21T14:24:50.194Z,23.65
2023-05-21T14:27:17.388Z,22.90
2023-05-21T14:29:44.292Z,23.54
2023-05-21T14:32:11.188Z,22.77
2023-05-21T14:34:39.270Z,21.72
2023-05-21T14:37:06.375Z,22.71
2023-05-21T14:39:33.129Z,22.03
2023-05-21T14:41:59.995Z,22.89
2023-05-21T14:44:26.973Z,21.51
2023-05-21T14:46:54.577Z,23.25
2023-05-21T14:49:21.747Z,22.87
2023-05-21T14:51:49.054Z,22.93
2023-05-21T14:54:15.830Z,22.34
2023-05-21T14:56:42.700Z,22.46
2023-05-21T14:59:11.406Z,23.72
2023-05-21T15:01:39.026Z,23.11
2023-05-21T15:04:07.558Z,22.76
2023-05-21T15:06:34.817Z,23.26
2023-05-21T15:09:02.014Z,23.35
2023-05-21T15:11:28.904Z,22.25
2023-05-21T15:13:55.811Z,23.38
2023-05-21T15:16:22.764Z,22.58
2023-05-21T15:18:50.290Z,22.50
2023-05-21T15:21:17.296Z,23.30
2023-05-21T15:23:44.328Z,22.99
2023-05-21T15:26:14.057Z,24.35
2023-05-21T15:28:41.019Z,23.10
2023-05-21T15:31:08.027Z,22.43
2023-05-21T15:33:34.845Z,23.38
2023-05-21T15:36:04.069Z,22.02
2023-05-21T15:38:31.269Z,22.65
2023-05-21T15:40:58.263Z,22.02
2023-05-21T15:43:25.442Z,23.06
2023-05-21T15:45:52.435Z,22.74
2023-05-21T15:48:22.574Z,24.06
2023-05-21T15:50:50.087Z,22.98
2023-05-21T15:53:17.157Z,22.85
2023-05-21T15:55:44.870Z,23.15
2023-05-21T15:58:12.012Z,22.38
2023-05-21T16:00:39.281Z,23.44
2023-05-21T16:03:06.296Z,23.48
2023-05-21T16:05:33.069Z,23.65
2023-05-21T16:08:00.508Z,24.05
2023-05-21T16:10:27.343Z,23.43
2023-05-21T16:12:54.129Z,24.07
2023-05-21T16:15:48.319Z,24.10
2023-05-21T16:18:16.203Z,24.29
2023-05-21T16:20:43.704Z,24.28
2023-05-21T16:23:12.300Z,24.53
2023-05-21T16:25:39.581Z,23.74
2023-05-21T16:28:06.693Z,24.15
2023-05-21T16:30:33.480Z,24.04
2023-05-21T16:33:00.771Z,23.05
2023-05-21T16:35:27.621Z,23.85
2023-05-21T16:37:55.821Z,23.60
2023-05-21T16:40:22.721Z,23.73
2023-05-21T16:42:49.748Z,23.52
2023-05-21T16:45:20.751Z,24.80
2023-05-21T16:47:48.845Z,24.33
2023-05-21T16:50:16.444Z,24.29
2023-05-21T16:52:43.404Z,24.23
2023-05-21T16:55:11.414Z,24.25
2023-05-21T16:57:38.630Z,24.26
2023-05-21T17:00:07.728Z,24.16
2023-05-21T17:02:35.257Z,24.79
2023-05-21T17:05:02.157Z,24.94
2023-05-21T17:07:29.240Z,24.75
2023-05-21T17:09:56.098Z,24.25
2023-05-21T17:12:23.749Z,24.49
2023-05-21T17:14:52.109Z,25.02
2023-05-21T17:17:19.181Z,25.23
2023-05-21T17:19:46.222Z,25.03
2023-05-21T17:22:14.926Z,26.58
2023-05-21T17:24:41.914Z,29.25
2023-05-21T17:27:08.954Z,31.52
2023-05-21T17:29:35.852Z,33.17
2023-05-21T17:32:03.256Z,34.10
2023-05-21T17:34:33.137Z,34.57
2023-05-21T17:37:03.138Z,34.84
2023-05-21T17:39:30.913Z,34.87
2023-05-21T17:41:57.987Z,34.98
2023-05-21T17:44:24.966Z,35.32
2023-05-21T17:46:52.404Z,35.93
2023-05-21T17:49:19.459Z,35.25
2023-05-21T17:51:48.064Z,35.73
2023-05-21T17:54:15.960Z,36.05
2023-05-21T17:56:44.204Z,36.46
2023-05-21T17:59:14.561Z,36.31
2023-05-21T18:01:41.534Z,36.97
2023-05-21T18:04:12.841Z,37.10
2023-05-21T18:06:40.439Z,37.82
2023-05-21T18:09:08.270Z,37.78
2023-05-21T18:11:35.223Z,37.89
2023-05-21T18:14:03.983Z,38.47
2023-05-21T18:16:31.817Z,38.63
2023-05-21T18:18:58.988Z,39.29
2023-05-21T18:21:26.344Z,38.53
2023-05-21T18:23:53.420Z,38.79
2023-05-21T18:26:20.985Z,38.87
2023-05-21T18:28:49.050Z,38.78
2023-05-21T18:31:17.282Z,39.39
2023-05-21T18:33:44.803Z,39.39
2023-05-21T18:36:11.771Z,39.23
2023-05-21T18:38:39.248Z,40.13
2023-05-21T18:41:07.621Z,40.14
2023-05-21T18:43:34.469Z,40.32
2023-05-21T18:46:01.328Z,40.20
2023-05-21T18:48:30.008Z,40.52
2023-05-21T18:50:57.036Z,39.82
2023-05-21T18:53:23.947Z,40.21
2023-05-21T18:55:50.908Z,40.15
2023-05-21T18:58:17.978Z,39.91
2023-05-21T19:00:44.916Z,40.51
2023-05-21T19:03:12.750Z,40.17
2023-05-21T19:05:39.593Z,41.04
2023-05-21T19:08:06.531Z,41.01
2023-05-21T19:10:33.445Z,41.65
2023-05-21T19:13:00.523Z,40.84
2023-05-21T19:15:27.558Z,41.23
2023-05-21T19:17:54.379Z,41.50
2023-05-21T19:20:24.730Z,41.58
2023-05-21T19:22:52.305Z,41.25
2023-05-21T19:25:19.299Z,41.89
2023-05-21T19:27:46.292Z,41.95
2023-05-21T19:30:13.622Z,41.94
2023-05-21T19:32:40.497Z,42.65
2023-05-21T19:35:08.261Z,42.16
2023-05-21T19:37:35.195Z,42.87
2023-05-21T19:40:02.017Z,42.70
2023-05-21T19:42:29.073Z,43.04
2023-05-21T19:44:55.921Z,43.27
2023-05-21T19:47:22.764Z,44.07
2023-05-21T19:49:49.569Z,43.51
2023-05-21T19:52:16.549Z,43.51
2023-05-21T19:54:43.602Z,43.26
2023-05-21T19:57:12.466Z,43.58
2023-05-21T19:59:39.558Z,43.81
2023-05-21T20:02:07.004Z,43.69
2023-05-21T20:04:33.910Z,43.66
2023-05-21T20:07:02.928Z,44.03
2023-05-21T20:09:31.480Z,44.03
2023-05-21T20:11:58.678Z,43.71
2023-05-21T20:14:25.624Z,44.18
2023-05-21T20:16:53.624Z,44.73
2023-05-21T20:19:22.798Z,44.28
2023-05-21T20:21:49.865Z,43.88
2023-05-21T20:24:17.056Z,44.89
2023-05-21T20:26:45.123Z,44.80
2023-05-21T20:29:12.196Z,44.28
2023-05-21T20:31:39.160Z,43.69
2023-05-21T20:34:07.909Z,44.19
2023-05-21T20:36:35.821Z,45.41
2023-05-21T20:39:03.077Z,44.26
2023-05-21T20:41:36.160Z,44.54
2023-05-21T20:44:05.172Z,45.37
2023-05-21T20:46:38.537Z,46.24
2023-05-21T20:49:06.140Z,48.06
2023-05-21T20:51:33.599Z,47.44
2023-05-21T20:54:00.444Z,47.53
2023-05-21T20:56:40.720Z,47.08
2023-05-21T20:59:09.953Z,47.93
2023-05-21T21:01:38.599Z,46.37
2023-05-21T21:04:05.799Z,47.03
2023-05-21T21:06:34.030Z,47.95
2023-05-21T21:09:00.883Z,48.20
2023-05-21T21:11:27.758Z,48.14
2023-05-21T21:13:54.639Z,47.93
2023-05-21T21:16:21.630Z,47.27
2023-05-21T21:18:48.659Z,47.18
2023-05-21T21:21:15.596Z,47.59
2023-05-21T21:23:42.553Z,47.69
2023-05-21T21:26:09.334Z,49.09
2023-05-21T21:28:36.243Z,48.90
2023-05-21T21:31:03.085Z,48.87
2023-05-21T21:33:29.935Z,48.87
2023-05-21T21:35:56.730Z,48.88
2023-05-21T21:38:24.066Z,48.43
2023-05-21T21:40:50.974Z,48.87
2023-05-21T21:43:17.800Z,48.61
2023-05-21T21:45:44.966Z,48.65
2023-05-21T21:48:11.779Z,49.21
2023-05-21T21:50:38.801Z,50.20
2023-05-21T21:53:06.045Z,50.37
2023-05-21T21:55:33.370Z,50.56
2023-05-21T21:58:00.418Z,50.92
2023-05-21T22:00:27.193Z,50.54
2023-05-21T22:02:54.159Z,50.01
2023-05-21T22:05:21.295Z,50.69
2023-05-21T22:07:48.200Z,51.69
2023-05-21T22:10:16.383Z,52.39
2023-05-21T22:12:44.424Z,52.17
2023-05-21T22:15:18.049Z,52.10
2023-05-21T22:17:48.361Z,51.80
2023-05-21T22:20:17.550Z,52.07
2023-05-21T22:22:46.170Z,52.26
2023-05-21T22:25:13.372Z,52.09
2023-05-21T22:27:40.563Z,51.98
2023-05-21T22:30:08.046Z,51.78
2023-05-21T22:32:35.089Z,51.81
2023-05-21T22:35:02.594Z,51.87
2023-05-21T22:37:29.688Z,51.99
2023-05-21T22:39:57.552Z,51.25
2023-05-21T22:42:24.628Z,51.99
2023-05-21T22:44:52.212Z,51.77
2023-05-21T22:47:23.086Z,51.67
2023-05-21T22:49:53.486Z,52.81
2023-05-21T22:52:24.029Z,53.20
2023-05-21T22:54:54.751Z,52.70
2023-05-21T22:57:21.818Z,53.17
2023-05-21T22:59:48.716Z,52.56
2023-05-21T23:02:16.535Z,52.75
2023-05-21T23:04:44.573Z,53.21
2023-05-21T23:07:12.561Z,52.80
2023-05-21T23:09:41.364Z,53.39
2023-05-21T23:12:10.258Z,52.63
2023-05-21T23:14:37.012Z,52.34
2023-05-21T23:17:04.527Z,53.21
2023-05-21T23:19:32.952Z,52.98
2023-05-21T23:22:00.620Z,52.91
2023-05-21T23:24:29.502Z,55.33
2023-05-21T23:27:01.846Z,55.28
2023-05-21T23:29:30.063Z,53.99
2023-05-21T23:31:57.247Z,54.69
2023-05-21T23:34:24.871Z,55.75
2023-05-21T23:36:51.904Z,55.39
2023-05-21T23:39:18.814Z,54.78
2023-05-21T23:41:45.729Z,55.43
2023-05-21T23:44:12.954Z,55.07
2023-05-21T23:46:39.784Z,54.75
2023-05-21T23:49:06.591Z,55.13
2023-05-21T23:51:33.493Z,54.44
2023-05-21T23:54:01.000Z,54.45
2023-05-21T23:56:27.816Z,55.03
2023-05-21T23:58:54.550Z,54.59
